Queen Elizabeth — ZCEF2 — position and weather

sailwx.info

Track history (hours):
 
Tides and Currents Weather Stations Pressure Air Temp Water Temp Dewpoint Dewpoint Depression Visibility Wind Speed Wind Dir Waves Ship Positions

Queen Elizabeth

Last reported at 2020-Mar-17 06:30 UTC. Time now 2020-Apr-02 03:26 UTC.
Position S 32°49' E 152°40'.
Warning: this ship's position is 15 days out of date.

Length 294 m; draft 8 m.

Type: Passenger vessel. MMSI: 310625000.

Date/timePositionNaut miles runAvg speedWind from/ knotsBaromVisibWave heightAir tempDewpointWater temp
2020-Mar-17 06:30S 32°49' E 152°40'713.2
2020-Mar-17 06:00S 32°55' E 152°36'7414.8
2020-Mar-17 01:00S 33°60' E 151°53'28 1.0
2020-Mar-15 19:54S 34°15' E 151°25'26 4.4
2020-Mar-15 13:58S 33°52' E 151°13'0 0.0
2020-Mar-15 10:58S 33°52' E 151°13'0 0.0
2020-Mar-15 09:58S 33°52' E 151°13'0 0.0
2020-Mar-15 08:58S 33°52' E 151°13'0 0.0
2020-Mar-15 03:28S 33°52' E 151°13'0 0.0
2020-Mar-15 02:28S 33°52' E 151°13'0 0.0
2020-Mar-15 00:58S 33°52' E 151°13'0 0.0
2020-Mar-14 22:28S 33°52' E 151°13'0 0.0
2020-Mar-14 21:28S 33°52' E 151°13'0 0.0
2020-Mar-14 20:58S 33°52' E 151°13'0 0.0
2020-Mar-14 19:58S 33°52' E 151°13'0 0.0
2020-Mar-14 19:28S 33°52' E 151°13'12 6.3
2020-Mar-14 17:30S 33°54' E 151°27'2114.2
2020-Mar-14 16:00S 34°16' E 151°26'56218.4
2020-Mar-13 09:28S 43°15' E 148°04'2914.7
2020-Mar-13 07:30S 43°06' E 147°27'1413.5
2020-Mar-13 06:30S 42°53' E 147°21'1 1.3
2020-Mar-13 06:00S 42°53' E 147°20'0 0.0
2020-Mar-13 04:00S 42°53' E 147°20'0 0.0
2020-Mar-13 02:30S 42°53' E 147°20'0 0.0
2020-Mar-13 01:30S 42°53' E 147°20'0 0.0
2020-Mar-12 21:30S 42°53' E 147°20'0 0.0
2020-Mar-12 21:00S 42°53' E 147°20'0 0.0
2020-Mar-12 20:30S 42°53' E 147°20'21 6.1
2020-Mar-12 17:00S 43°12' E 147°32'10 9.6
2020-Mar-12 16:00S 43°22' E 147°28'10 9.9
2020-Mar-12 15:00S 43°31' E 147°24'20 6.4
2020-Mar-12 11:55S 43°48' E 147°38'23 9.4
2020-Mar-12 09:28S 43°33' E 148°02'5 9.9
2020-Mar-12 09:00S 43°28' E 148°03'12 8.1
2020-Mar-12 07:30S 43°17' E 147°56'7 0.6
2020-Mar-11 20:00S 43°10' E 147°53'1110.9
2020-Mar-11 18:59S 43°17' E 148°04'713.5
2020-Mar-11 18:27S 43°17' E 148°14'  
2020-Mar-09 10:31S 34°11' E 151°26'2210.9
2020-Mar-09 08:30S 33°51' E 151°14'1 0.9
2020-Mar-09 07:29S 33°52' E 151°13'0 0.0
2020-Mar-08 23:29S 33°52' E 151°13'0 0.0
2020-Mar-08 22:53S 33°52' E 151°13'0 0.0
2020-Mar-08 21:59S 33°52' E 151°13'0 0.0
2020-Mar-08 21:29S 33°52' E 151°13'2 0.8
2020-Mar-08 18:30S 33°51' E 151°15'29915.3
2020-Mar-07 23:00S 38°27' E 148°52'5016.7
2020-Mar-07 20:00S 38°48' E 147°54'   140 / 231023.710.8 16.012.418.0
Track history (hours):
 
Tides and Currents Weather Stations Pressure Air Temp Water Temp Dewpoint Dewpoint Depression Visibility Wind Speed Wind Dir Waves Ship Positions

Queen Elizabeth

Last reported at 2020-Mar-17 06:30 UTC. Time now 2020-Apr-02 03:26 UTC.
Position S 32°49' E 152°40'.
Warning: this ship's position is 15 days out of date.

Length 294 m; draft 8 m.

Type: Passenger vessel. MMSI: 310625000.

Date/timePositionNaut miles runAvg speedWind from/ knotsBaromVisibWave heightAir tempDewpointWater temp
2020-Mar-17 06:30S 32°49' E 152°40'713.2
2020-Mar-17 06:00S 32°55' E 152°36'7414.8
2020-Mar-17 01:00S 33°60' E 151°53'28 1.0
2020-Mar-15 19:54S 34°15' E 151°25'26 4.4
2020-Mar-15 13:58S 33°52' E 151°13'0 0.0
2020-Mar-15 10:58S 33°52' E 151°13'0 0.0
2020-Mar-15 09:58S 33°52' E 151°13'0 0.0
2020-Mar-15 08:58S 33°52' E 151°13'0 0.0
2020-Mar-15 03:28S 33°52' E 151°13'0 0.0
2020-Mar-15 02:28S 33°52' E 151°13'0 0.0
2020-Mar-15 00:58S 33°52' E 151°13'0 0.0
2020-Mar-14 22:28S 33°52' E 151°13'0 0.0
2020-Mar-14 21:28S 33°52' E 151°13'0 0.0
2020-Mar-14 20:58S 33°52' E 151°13'0 0.0
2020-Mar-14 19:58S 33°52' E 151°13'0 0.0
2020-Mar-14 19:28S 33°52' E 151°13'12 6.3
2020-Mar-14 17:30S 33°54' E 151°27'2114.2
2020-Mar-14 16:00S 34°16' E 151°26'56218.4
2020-Mar-13 09:28S 43°15' E 148°04'2914.7
2020-Mar-13 07:30S 43°06' E 147°27'1413.5
2020-Mar-13 06:30S 42°53' E 147°21'1 1.3
2020-Mar-13 06:00S 42°53' E 147°20'0 0.0
2020-Mar-13 04:00S 42°53' E 147°20'0 0.0
2020-Mar-13 02:30S 42°53' E 147°20'0 0.0
2020-Mar-13 01:30S 42°53' E 147°20'0 0.0
2020-Mar-12 21:30S 42°53' E 147°20'0 0.0
2020-Mar-12 21:00S 42°53' E 147°20'0 0.0
2020-Mar-12 20:30S 42°53' E 147°20'21 6.1
2020-Mar-12 17:00S 43°12' E 147°32'10 9.6
2020-Mar-12 16:00S 43°22' E 147°28'10 9.9
2020-Mar-12 15:00S 43°31' E 147°24'20 6.4
2020-Mar-12 11:55S 43°48' E 147°38'23 9.4
2020-Mar-12 09:28S 43°33' E 148°02'5 9.9
2020-Mar-12 09:00S 43°28' E 148°03'12 8.1
2020-Mar-12 07:30S 43°17' E 147°56'7 0.6
2020-Mar-11 20:00S 43°10' E 147°53'1110.9
2020-Mar-11 18:59S 43°17' E 148°04'713.5
2020-Mar-11 18:27S 43°17' E 148°14'  
2020-Mar-09 10:31S 34°11' E 151°26'2210.9
2020-Mar-09 08:30S 33°51' E 151°14'1 0.9
2020-Mar-09 07:29S 33°52' E 151°13'0 0.0
2020-Mar-08 23:29S 33°52' E 151°13'0 0.0
2020-Mar-08 22:53S 33°52' E 151°13'0 0.0
2020-Mar-08 21:59S 33°52' E 151°13'0 0.0
2020-Mar-08 21:29S 33°52' E 151°13'2 0.8
2020-Mar-08 18:30S 33°51' E 151°15'29915.3
2020-Mar-07 23:00S 38°27' E 148°52'5016.7
2020-Mar-07 20:00S 38°48' E 147°54'   140 / 231023.710.8 16.012.418.0

Dump ship's entire track history